createdAt,value
2023-10-20T00:00:41.975Z,98912.06
2023-10-20T00:03:09.794Z,98909.59
2023-10-20T00:05:36.836Z,98906.94
2023-10-20T00:08:03.998Z,98898.13
2023-10-20T00:10:36.337Z,98901.81
2023-10-20T00:13:03.242Z,98903.66
2023-10-20T00:15:29.764Z,98908.16
2023-10-20T00:17:56.299Z,98902.81
2023-10-20T00:20:22.839Z,98893.44
2023-10-20T00:22:49.713Z,98879.31
2023-10-20T00:25:16.298Z,98874.00
2023-10-20T00:27:42.809Z,98860.91
2023-10-20T00:30:10.619Z,98849.47
2023-10-20T00:32:37.433Z,98853.94
2023-10-20T00:35:06.825Z,98858.44
2023-10-20T00:37:33.306Z,98857.63
2023-10-20T00:39:59.773Z,98851.50
2023-10-20T00:42:26.206Z,98847.19
2023-10-20T00:44:55.020Z,98854.34
2023-10-20T00:47:21.587Z,98850.03
2023-10-20T00:49:50.724Z,98844.09
2023-10-20T00:52:20.161Z,98842.47
2023-10-20T00:54:48.618Z,98848.59
2023-10-20T00:57:17.492Z,98844.31
2023-10-20T00:59:44.534Z,98847.78
2023-10-20T01:02:11.548Z,98853.28
2023-10-20T01:04:38.056Z,98842.06
2023-10-20T01:07:04.566Z,98851.88
2023-10-20T01:09:31.144Z,98859.03
2023-10-20T01:11:58.103Z,98852.06
2023-10-20T01:14:24.581Z,98845.94
2023-10-20T01:16:51.219Z,98841.63
2023-10-20T01:19:17.667Z,98830.19
2023-10-20T01:21:45.994Z,98831.19
2023-10-20T01:24:12.474Z,98822.41
2023-10-20T01:26:40.162Z,98817.09
2023-10-20T01:29:10.886Z,98810.13
2023-10-20T01:31:39.993Z,98815.44
2023-10-20T01:34:06.547Z,98818.31
2023-10-20T01:36:33.088Z,98820.16
2023-10-20T01:38:59.653Z,98821.16
2023-10-20T01:41:27.477Z,98815.84
2023-10-20T01:43:56.313Z,98820.34
2023-10-20T01:46:22.889Z,98816.03
2023-10-20T01:48:49.363Z,98816.03
2023-10-20T01:51:15.832Z,98818.94
2023-10-20T01:53:42.424Z,98808.50
2023-10-20T01:56:09.041Z,98807.66
2023-10-20T01:58:35.543Z,98801.53
2023-10-20T02:01:02.130Z,98803.38
2023-10-20T02:03:28.850Z,98795.59
2023-10-20T02:05:55.422Z,98797.25
2023-10-20T02:08:21.901Z,98790.47
2023-10-20T02:10:48.398Z,98787.00
2023-10-20T02:13:14.883Z,98785.16
2023-10-20T02:15:46.262Z,98783.53
2023-10-20T02:18:12.968Z,98775.56
2023-10-20T02:20:39.509Z,98772.91
2023-10-20T02:23:06.010Z,98760.63
2023-10-20T02:25:32.465Z,98752.84
2023-10-20T02:27:58.934Z,98752.03
2023-10-20T02:30:25.418Z,98739.78
2023-10-20T02:32:51.963Z,98723.81
2023-10-20T02:35:18.522Z,98715.25
2023-10-20T02:37:44.977Z,98708.13
2023-10-20T02:40:11.895Z,98709.13
2023-10-20T02:42:38.468Z,98710.16
2023-10-20T02:45:10.616Z,98708.31
2023-10-20T02:47:37.185Z,98704.03
2023-10-20T02:50:03.952Z,98692.56
2023-10-20T02:52:30.475Z,98679.50
2023-10-20T02:54:57.505Z,98681.31
2023-10-20T02:57:23.995Z,98677.03
2023-10-20T02:59:53.301Z,98683.16
2023-10-20T03:02:21.770Z,98675.38
2023-10-20T03:04:48.392Z,98672.94
2023-10-20T03:07:14.929Z,98664.16
2023-10-20T03:09:41.396Z,98659.03
2023-10-20T03:12:07.847Z,98660.88
2023-10-20T03:14:36.131Z,98649.41
2023-10-20T03:17:03.044Z,98649.41
2023-10-20T03:19:29.844Z,98648.59
2023-10-20T03:21:56.434Z,98654.16
2023-10-20T03:24:22.945Z,98654.34
2023-10-20T03:26:49.637Z,98645.56
2023-10-20T03:29:16.355Z,98629.00
2023-10-20T03:31:43.358Z,98640.44
2023-10-20T03:34:09.869Z,98639.81
2023-10-20T03:36:36.329Z,98631.03
2023-10-20T03:39:02.943Z,98616.13
2023-10-20T03:41:30.493Z,98607.31
2023-10-20T03:43:59.471Z,98599.56
2023-10-20T03:46:28.030Z,98589.97
2023-10-20T03:48:54.796Z,98605.06
2023-10-20T03:51:22.581Z,98607.94
2023-10-20T03:53:51.883Z,98602.63
2023-10-20T03:56:20.514Z,98593.03
2023-10-20T03:58:48.050Z,98585.28
2023-10-20T04:01:14.807Z,98583.63
2023-10-20T04:03:42.374Z,98588.94
2023-10-20T04:06:12.898Z,98589.97
2023-10-20T04:08:39.526Z,98577.09
2023-10-20T04:11:06.181Z,98577.91
2023-10-20T04:13:33.522Z,98556.03
2023-10-20T04:16:13.224Z,98544.59
2023-10-20T04:18:43.177Z,98557.88
2023-10-20T04:21:12.610Z,98557.06
2023-10-20T04:23:39.673Z,98565.22
2023-10-20T04:26:17.055Z,98554.59
2023-10-20T04:28:47.543Z,98546.84
2023-10-20T04:31:32.999Z,98547.88
2023-10-20T04:34:18.072Z,98535.44
2023-10-20T04:37:03.366Z,98534.00
2023-10-20T04:39:48.810Z,98541.13
2023-10-20T04:42:33.850Z,98525.22
2023-10-20T04:45:18.996Z,98512.13
2023-10-20T04:47:57.643Z,98515.00
2023-10-20T04:50:42.894Z,98519.47
2023-10-20T04:53:32.672Z,98531.13
2023-10-20T04:56:17.357Z,98528.84
2023-10-20T04:58:53.014Z,98519.06
2023-10-20T05:01:28.714Z,98518.84
2023-10-20T05:03:59.122Z,98512.94
2023-10-20T05:06:43.735Z,98516.41
2023-10-20T05:09:14.157Z,98510.47
2023-10-20T05:11:41.191Z,98507.00
2023-10-20T05:14:07.744Z,98496.38
2023-10-20T05:16:37.344Z,98493.16
2023-10-20T05:19:06.882Z,98482.53
2023-10-20T05:21:34.643Z,98481.06
2023-10-20T05:24:06.959Z,98475.75
2023-10-20T05:26:33.589Z,98474.13
2023-10-20T05:29:00.525Z,98459.22
2023-10-20T05:31:28.083Z,98467.16
2023-10-20T05:33:54.754Z,98459.22
2023-10-20T05:36:21.259Z,98436.13
2023-10-20T05:38:48.231Z,98429.19
2023-10-20T05:41:14.818Z,98437.16
2023-10-20T05:43:42.510Z,98416.13
2023-10-20T05:46:19.007Z,98414.28
2023-10-20T05:48:46.179Z,98426.75
2023-10-20T05:51:13.251Z,98439.19
2023-10-20T05:53:39.766Z,98416.31
2023-10-20T05:56:07.651Z,98451.84
2023-10-20T05:58:36.136Z,98438.78
2023-10-20T06:01:10.648Z,98445.09
2023-10-20T06:03:37.374Z,98457.59
2023-10-20T06:06:06.891Z,98454.09
2023-10-20T06:08:33.561Z,98452.28
2023-10-20T06:11:06.814Z,98447.97
2023-10-20T06:13:35.552Z,98454.09
2023-10-20T06:16:12.412Z,98455.94
2023-10-20T06:18:40.056Z,98447.97
2023-10-20T06:21:07.189Z,98447.97
2023-10-20T06:23:33.927Z,98444.50
2023-10-20T06:26:00.568Z,98440.22
2023-10-20T06:28:27.902Z,98441.03
2023-10-20T06:30:58.895Z,98438.59
2023-10-20T06:33:30.423Z,98420.81
2023-10-20T06:36:01.561Z,98434.09
2023-10-20T06:38:46.030Z,98439.59
2023-10-20T06:41:14.426Z,98436.94
2023-10-20T06:43:41.096Z,98438.78
2023-10-20T06:46:07.607Z,98438.78
2023-10-20T06:48:34.179Z,98443.28
2023-10-20T06:51:00.630Z,98440.63
2023-10-20T06:53:27.102Z,98424.91
2023-10-20T06:56:04.791Z,98428.38
2023-10-20T06:58:40.039Z,98427.56
2023-10-20T07:01:07.070Z,98426.53
2023-10-20T07:03:33.967Z,98430.22
2023-10-20T07:06:01.748Z,98417.78
2023-10-20T07:08:28.382Z,98412.66
2023-10-20T07:10:54.903Z,98425.91
2023-10-20T07:13:21.353Z,98408.38
2023-10-20T07:15:47.919Z,98415.31
2023-10-20T07:18:14.574Z,98408.16
2023-10-20T07:20:41.235Z,98418.78
2023-10-20T07:23:07.820Z,98407.16
2023-10-20T07:25:34.550Z,98408.78
2023-10-20T07:28:01.050Z,98408.78
2023-10-20T07:30:33.209Z,98417.56
2023-10-20T07:32:59.712Z,98422.88
2023-10-20T07:35:26.388Z,98410.41
2023-10-20T07:37:52.910Z,98414.72
2023-10-20T07:40:20.218Z,98426.13
2023-10-20T07:42:47.779Z,98418.19
2023-10-20T07:45:14.505Z,98414.72
2023-10-20T07:47:41.068Z,98404.72
2023-10-20T07:50:07.781Z,98401.25
2023-10-20T07:52:34.307Z,98399.41
2023-10-20T07:55:02.673Z,98399.41
2023-10-20T07:57:30.110Z,98408.19
2023-10-20T07:59:56.616Z,98411.84
2023-10-20T08:02:24.947Z,98409.81
2023-10-20T08:04:52.297Z,98406.34
2023-10-20T08:07:19.506Z,98407.38
2023-10-20T08:09:48.424Z,98402.88
2023-10-20T08:12:16.277Z,98397.75
2023-10-20T08:14:42.868Z,98397.75
2023-10-20T08:17:11.564Z,98402.06
2023-10-20T08:19:38.188Z,98394.09
2023-10-20T08:22:04.768Z,98380.81
2023-10-20T08:24:31.607Z,98394.09
2023-10-20T08:26:58.968Z,98382.47
2023-10-20T08:29:25.887Z,98383.28
2023-10-20T08:31:52.803Z,98381.66
2023-10-20T08:34:19.319Z,98368.16
2023-10-20T08:36:45.859Z,98361.22
2023-10-20T08:39:15.372Z,98367.34
2023-10-20T08:41:43.578Z,98370.00
2023-10-20T08:44:10.869Z,98367.56
2023-10-20T08:46:37.573Z,98371.84
2023-10-20T08:49:06.660Z,98384.31
2023-10-20T08:51:33.952Z,98375.53
2023-10-20T08:54:00.613Z,98371.03
2023-10-20T08:56:27.971Z,98352.47
2023-10-20T08:58:58.137Z,98355.31
2023-10-20T09:01:25.107Z,98350.00
2023-10-20T09:03:53.558Z,98363.06
2023-10-20T09:06:20.755Z,98359.81
2023-10-20T09:08:48.668Z,98375.72
2023-10-20T09:11:15.371Z,98377.56
2023-10-20T09:13:42.381Z,98362.44
2023-10-20T09:16:10.071Z,98350.22
2023-10-20T09:18:54.569Z,98357.16
2023-10-20T09:21:22.697Z,98344.09
2023-10-20T09:23:58.265Z,98344.91
2023-10-20T09:26:27.957Z,98349.38
2023-10-20T09:28:55.709Z,98342.25
2023-10-20T09:31:23.408Z,98353.88
2023-10-20T09:33:50.359Z,98343.25
2023-10-20T09:36:17.248Z,98358.38
2023-10-20T09:39:06.446Z,98347.75
2023-10-20T09:41:34.068Z,98359.38
2023-10-20T09:44:08.348Z,98340.81
2023-10-20T09:46:54.621Z,98345.31
2023-10-20T09:49:27.132Z,98345.50
2023-10-20T09:51:55.620Z,98341.00
2023-10-20T09:54:25.369Z,98334.88
2023-10-20T09:56:52.594Z,98331.41
2023-10-20T09:59:21.437Z,98334.06
2023-10-20T10:01:48.239Z,98325.09
2023-10-20T10:04:15.033Z,98316.31
2023-10-20T10:06:46.565Z,98327.13
2023-10-20T10:09:16.327Z,98329.78
2023-10-20T10:11:46.419Z,98326.31
2023-10-20T10:14:23.090Z,98325.28
2023-10-20T10:16:56.470Z,98314.69
2023-10-20T10:19:27.284Z,98315.69
2023-10-20T10:21:54.842Z,98323.66
2023-10-20T10:24:24.590Z,98307.94
2023-10-20T10:26:56.367Z,98307.94
2023-10-20T10:29:41.488Z,98307.94
2023-10-20T10:32:11.629Z,98305.28
2023-10-20T10:34:44.156Z,98304.72
2023-10-20T10:37:10.738Z,98309.19
2023-10-20T10:39:37.677Z,98311.03
2023-10-20T10:42:05.176Z,98298.78
2023-10-20T10:44:35.858Z,98296.34
2023-10-20T10:47:04.387Z,98291.84
2023-10-20T10:49:32.421Z,98280.41
2023-10-20T10:51:59.931Z,98276.94
2023-10-20T10:54:27.898Z,98253.06
2023-10-20T10:56:57.335Z,98267.16
2023-10-20T10:59:25.041Z,98261.03
2023-10-20T11:01:52.779Z,98254.91
2023-10-20T11:04:19.340Z,98261.84
2023-10-20T11:06:46.021Z,98245.94
2023-10-20T11:09:17.454Z,98258.38
2023-10-20T11:11:49.069Z,98252.25
2023-10-20T11:16:49.151Z,98233.69
2023-10-20T11:19:16.174Z,98228.38
2023-10-20T11:21:46.696Z,98227.38
2023-10-20T11:24:24.030Z,98200.03
2023-10-20T11:27:01.110Z,98212.47
2023-10-20T11:29:28.712Z,98195.75
2023-10-20T11:31:59.433Z,98189.63
2023-10-20T11:34:26.436Z,98180.03
2023-10-20T11:36:52.881Z,98165.75
2023-10-20T11:39:22.505Z,98162.28
2023-10-20T11:41:49.094Z,98163.09
2023-10-20T11:44:15.560Z,98161.25
2023-10-20T11:46:44.434Z,98159.63
2023-10-20T11:49:12.045Z,98170.22
2023-10-20T11:51:39.738Z,98159.81
2023-10-20T11:54:07.097Z,98150.88
2023-10-20T11:56:36.156Z,98149.22
2023-10-20T11:59:02.773Z,98145.75
2023-10-20T12:01:29.279Z,98143.31
2023-10-20T12:03:55.845Z,98145.94
2023-10-20T12:06:22.372Z,98141.47
2023-10-20T12:08:49.058Z,98148.81
2023-10-20T12:11:15.674Z,98139.03
2023-10-20T12:13:47.852Z,98122.28
2023-10-20T12:16:14.458Z,98113.31
2023-10-20T12:18:41.695Z,98109.03
2023-10-20T12:21:09.126Z,98114.31
2023-10-20T12:23:35.737Z,98100.25
2023-10-20T12:26:04.366Z,98097.84
2023-10-20T12:28:32.416Z,98089.88
2023-10-20T12:31:00.719Z,98098.66
2023-10-20T12:33:28.475Z,98096.22
2023-10-20T12:35:55.780Z,98090.69
2023-10-20T12:38:23.155Z,98085.59
2023-10-20T12:40:52.814Z,98089.88
2023-10-20T12:43:19.956Z,98079.28
2023-10-20T12:45:46.501Z,98075.00
2023-10-20T12:48:13.041Z,98081.94
2023-10-20T12:50:40.179Z,98095.41
2023-10-20T12:53:08.472Z,98088.47
2023-10-20T12:55:35.980Z,98078.66
2023-10-20T12:58:03.443Z,98088.47
2023-10-20T13:00:30.043Z,98072.75
2023-10-20T13:02:56.758Z,98070.09
2023-10-20T13:05:23.286Z,98058.47
2023-10-20T13:07:51.470Z,98070.09
2023-10-20T13:10:18.418Z,98070.09
2023-10-20T13:12:44.912Z,98060.50
2023-10-20T13:15:11.487Z,98066.84
2023-10-20T13:17:38.782Z,98066.03
2023-10-20T13:20:07.075Z,98061.53
2023-10-20T13:22:33.865Z,98061.75
2023-10-20T13:25:00.344Z,98058.88
2023-10-20T13:27:27.815Z,98063.38
2023-10-20T13:29:54.323Z,98059.91
2023-10-20T13:32:20.785Z,98074.19
2023-10-20T13:34:47.258Z,98075.81
2023-10-20T13:37:13.696Z,98051.19
2023-10-20T13:39:40.169Z,98062.75
2023-10-20T13:42:07.934Z,98067.88
2023-10-20T13:44:34.488Z,98067.03
2023-10-20T13:47:01.033Z,98071.53
2023-10-20T13:49:29.083Z,98062.97
2023-10-20T13:51:55.548Z,98065.63
2023-10-20T13:54:22.091Z,98070.94
2023-10-20T13:56:48.605Z,98075.41
2023-10-20T13:59:16.813Z,98064.81
2023-10-20T14:01:43.361Z,98072.75
2023-10-20T14:04:09.952Z,98069.28
2023-10-20T14:06:36.579Z,98070.34
2023-10-20T14:09:04.186Z,98079.91
2023-10-20T14:11:30.783Z,98086.03
2023-10-20T14:13:57.782Z,98085.22
2023-10-20T14:16:24.379Z,98081.75
2023-10-20T14:18:50.884Z,98087.03
2023-10-20T14:21:17.461Z,98094.22
2023-10-20T14:23:43.995Z,98096.88
2023-10-20T14:26:10.507Z,98097.66
2023-10-20T14:28:37.948Z,98099.53
2023-10-20T14:31:08.016Z,98110.91
2023-10-20T14:33:37.638Z,98109.31
2023-10-20T14:36:07.106Z,98101.13
2023-10-20T14:38:33.677Z,98102.75
2023-10-20T14:41:04.172Z,98116.22
2023-10-20T14:43:33.469Z,98115.03
2023-10-20T14:46:00.582Z,98121.31
2023-10-20T14:48:29.985Z,98108.88
2023-10-20T14:50:57.327Z,98101.72
2023-10-20T14:53:24.112Z,98096.63
2023-10-20T14:55:50.723Z,98099.88
2023-10-20T14:58:17.573Z,98101.94
2023-10-20T15:00:48.421Z,98090.91
2023-10-20T15:03:15.827Z,98086.84
2023-10-20T15:05:42.889Z,98075.41
2023-10-20T15:08:09.911Z,98083.16
2023-10-20T15:10:36.907Z,98082.34
2023-10-20T15:13:04.708Z,98088.25
2023-10-20T15:15:32.022Z,98083.16
2023-10-20T15:17:59.069Z,98077.03
2023-10-20T15:20:25.981Z,98082.13
2023-10-20T15:22:55.700Z,98080.50
2023-10-20T15:25:29.781Z,98082.97
2023-10-20T15:27:56.241Z,98084.78
2023-10-20T15:30:23.286Z,98080.31
2023-10-20T15:32:49.981Z,98080.31
2023-10-20T15:35:16.991Z,98082.13
2023-10-20T15:37:43.492Z,98090.91
2023-10-20T15:40:18.652Z,98077.66
2023-10-20T15:42:45.814Z,98089.88
2023-10-20T15:45:12.376Z,98090.91
2023-10-20T15:47:39.137Z,98087.44
2023-10-20T15:50:06.104Z,98090.91
2023-10-20T15:52:32.675Z,98094.38
2023-10-20T15:54:59.186Z,98085.81
2023-10-20T15:57:26.275Z,98091.72
2023-10-20T15:59:56.774Z,98091.72
2023-10-20T16:02:23.597Z,98089.88
2023-10-20T16:04:51.007Z,98094.38
2023-10-20T16:07:17.484Z,98092.75
2023-10-20T16:09:43.941Z,98091.72
2023-10-20T16:12:10.485Z,98084.78
2023-10-20T16:14:36.991Z,98077.50
2023-10-20T16:17:03.493Z,98089.06
2023-10-20T16:19:29.924Z,98087.25
2023-10-20T16:21:56.375Z,98103.97
2023-10-20T16:24:23.012Z,98095.00
2023-10-20T16:26:49.498Z,98096.81
2023-10-20T16:29:16.022Z,98099.47
2023-10-20T16:31:42.457Z,98110.91
2023-10-20T16:34:09.079Z,98110.91
2023-10-20T16:36:35.618Z,98105.59
2023-10-20T16:39:05.294Z,98101.09
2023-10-20T16:41:32.068Z,98095.00
2023-10-20T16:43:58.564Z,98103.75
2023-10-20T16:46:25.064Z,98095.81
2023-10-20T16:48:52.540Z,98102.13
2023-10-20T16:51:19.029Z,98104.78
2023-10-20T16:53:47.885Z,98109.06
2023-10-20T16:56:14.885Z,98117.03
2023-10-20T16:58:44.491Z,98113.75
2023-10-20T17:01:11.162Z,98107.44
2023-10-20T17:03:37.953Z,98103.97
2023-10-20T17:06:07.434Z,98108.25
2023-10-20T17:08:34.238Z,98107.44
2023-10-20T17:11:07.084Z,98105.59
2023-10-20T17:13:34.529Z,98109.28
2023-10-20T17:16:04.955Z,98115.38
2023-10-20T17:18:31.914Z,98113.56
2023-10-20T17:21:08.774Z,98110.91
2023-10-20T17:23:35.909Z,98110.09
2023-10-20T17:26:03.862Z,98105.59
2023-10-20T17:28:31.899Z,98112.75
2023-10-20T17:30:59.130Z,98118.84
2023-10-20T17:33:29.036Z,98117.03
2023-10-20T17:36:01.977Z,98106.41
2023-10-20T17:38:28.514Z,98115.19
2023-10-20T17:40:55.986Z,98110.69
2023-10-20T17:43:22.470Z,98111.72
2023-10-20T17:45:48.984Z,98129.25
2023-10-20T17:48:15.631Z,98117.03
2023-10-20T17:50:42.223Z,98121.31
2023-10-20T17:53:10.328Z,98131.91
2023-10-20T17:55:43.339Z,98139.88
2023-10-20T17:58:09.967Z,98141.72
2023-10-20T18:00:36.525Z,98139.88
2023-10-20T18:03:03.983Z,98143.34
2023-10-20T18:05:30.731Z,98140.69
2023-10-20T18:07:57.320Z,98144.16
2023-10-20T18:10:23.776Z,98138.84
2023-10-20T18:12:51.014Z,98133.53
2023-10-20T18:15:17.759Z,98135.38
2023-10-20T18:17:44.311Z,98144.16
2023-10-20T18:20:11.031Z,98143.13
2023-10-20T18:22:37.537Z,98142.31
2023-10-20T18:25:04.238Z,98147.63
2023-10-20T18:27:30.738Z,98147.63
2023-10-20T18:29:57.208Z,98147.63
2023-10-20T18:32:23.820Z,98144.16
2023-10-20T18:34:50.317Z,98149.25
2023-10-20T18:37:16.806Z,98145.78
2023-10-20T18:39:43.255Z,98159.88
2023-10-20T18:42:11.509Z,98151.91
2023-10-20T18:44:38.507Z,98157.22
2023-10-20T18:47:05.399Z,98158.03
2023-10-20T18:49:31.903Z,98162.31
2023-10-20T18:51:58.374Z,98158.84
2023-10-20T18:54:24.870Z,98161.50
2023-10-20T18:56:51.338Z,98158.84
2023-10-20T18:59:17.838Z,98163.13
2023-10-20T19:01:44.270Z,98171.88
2023-10-20T19:04:10.858Z,98172.69
2023-10-20T19:06:38.025Z,98173.50
2023-10-20T19:09:05.070Z,98178.00
2023-10-20T19:11:31.910Z,98178.81
2023-10-20T19:13:58.662Z,98182.28
2023-10-20T19:16:25.146Z,98187.56
2023-10-20T19:18:51.772Z,98195.34
2023-10-20T19:21:18.357Z,98188.41
2023-10-20T19:23:44.856Z,98197.16
2023-10-20T19:26:11.723Z,98197.78
2023-10-20T19:28:39.203Z,98211.03
2023-10-20T19:31:08.380Z,98205.75
2023-10-20T19:33:35.179Z,98206.56
2023-10-20T19:36:02.833Z,98213.50
2023-10-20T19:38:29.754Z,98220.44
2023-10-20T19:40:56.321Z,98221.44
2023-10-20T19:43:22.881Z,98223.09
2023-10-20T19:45:49.373Z,98229.19
2023-10-20T19:48:15.893Z,98233.50
2023-10-20T19:50:43.777Z,98247.56
2023-10-20T19:53:10.380Z,98244.91
2023-10-20T19:55:36.823Z,98248.19
2023-10-20T19:58:03.408Z,98260.63
2023-10-20T20:00:31.266Z,98261.44
2023-10-20T20:02:58.610Z,98246.34
2023-10-20T20:05:31.431Z,98265.72
2023-10-20T20:07:58.177Z,98272.63
2023-10-20T20:10:24.926Z,98285.91
2023-10-20T20:12:51.419Z,98289.38
2023-10-20T20:15:18.713Z,98292.84
2023-10-20T20:17:45.474Z,98290.00
2023-10-20T20:20:12.114Z,98288.34
2023-10-20T20:22:38.786Z,98291.81
2023-10-20T20:25:05.489Z,98299.59
2023-10-20T20:27:32.571Z,98296.09
2023-10-20T20:29:59.202Z,98307.53
2023-10-20T20:32:25.761Z,98303.06
2023-10-20T20:34:52.296Z,98301.22
2023-10-20T20:37:20.302Z,98301.00
2023-10-20T20:39:46.900Z,98299.38
2023-10-20T20:42:13.526Z,98308.97
2023-10-20T20:44:40.123Z,98320.41
2023-10-20T20:47:06.669Z,98315.91
2023-10-20T20:49:33.418Z,98316.72
2023-10-20T20:52:00.154Z,98311.41
2023-10-20T20:54:26.683Z,98325.50
2023-10-20T20:56:53.196Z,98323.66
2023-10-20T20:59:19.821Z,98326.13
2023-10-20T21:01:46.703Z,98320.00
2023-10-20T21:04:13.589Z,98325.09
2023-10-20T21:06:40.243Z,98324.28
2023-10-20T21:09:06.867Z,98342.84
2023-10-20T21:11:34.383Z,98332.25
2023-10-20T21:14:04.257Z,98341.03
2023-10-20T21:16:31.947Z,98336.53
2023-10-20T21:19:01.525Z,98340.81
2023-10-20T21:21:28.243Z,98343.47
2023-10-20T21:23:54.789Z,98350.38
2023-10-20T21:26:22.780Z,98345.91
2023-10-20T21:28:49.493Z,98356.50
2023-10-20T21:31:16.302Z,98352.84
2023-10-20T21:33:42.962Z,98361.81
2023-10-20T21:36:13.755Z,98360.81
2023-10-20T21:38:40.315Z,98368.75
2023-10-20T21:41:06.804Z,98366.94
2023-10-20T21:43:33.265Z,98370.41
2023-10-20T21:45:59.839Z,98376.53
2023-10-20T21:48:27.080Z,98374.69
2023-10-20T21:51:03.729Z,98380.00
2023-10-20T21:53:33.268Z,98391.44
2023-10-20T21:56:11.564Z,98390.59
2023-10-20T21:58:38.433Z,98387.94
2023-10-20T22:01:06.112Z,98390.59
2023-10-20T22:03:33.024Z,98402.03
2023-10-20T22:05:59.684Z,98401.03
2023-10-20T22:08:26.254Z,98402.84
2023-10-20T22:10:52.878Z,98399.38
2023-10-20T22:13:19.626Z,98409.81
2023-10-20T22:15:46.951Z,98421.22
2023-10-20T22:18:13.527Z,98419.41
2023-10-20T22:20:40.455Z,98421.22
2023-10-20T22:23:07.981Z,98424.69
2023-10-20T22:25:34.913Z,98433.47
2023-10-20T22:28:01.516Z,98435.31
2023-10-20T22:30:28.178Z,98436.97
2023-10-20T22:32:54.827Z,98430.84
2023-10-20T22:35:21.371Z,98426.34
2023-10-20T22:37:49.353Z,98430.00
2023-10-20T22:40:16.159Z,98432.66
2023-10-20T22:42:42.597Z,98439.63
2023-10-20T22:45:09.607Z,98448.38
2023-10-20T22:47:36.226Z,98449.41
2023-10-20T22:50:02.811Z,98452.06
2023-10-20T22:52:29.324Z,98455.53
2023-10-20T22:54:55.756Z,98452.88
2023-10-20T22:57:22.277Z,98456.34
2023-10-20T22:59:48.841Z,98460.66
2023-10-20T23:02:15.357Z,98465.13
2023-10-20T23:04:41.909Z,98464.13
2023-10-20T23:07:08.527Z,98459.63
2023-10-20T23:09:35.569Z,98467.78
2023-10-20T23:12:02.276Z,98464.13
2023-10-20T23:14:28.760Z,98477.38
2023-10-20T23:16:55.220Z,98467.78
2023-10-20T23:19:21.795Z,98475.56
2023-10-20T23:21:48.304Z,98489.66
2023-10-20T23:24:14.838Z,98485.19
2023-10-20T23:26:41.884Z,98487.00
2023-10-20T23:29:08.348Z,98489.66
2023-10-20T23:31:34.804Z,98494.97
2023-10-20T23:34:01.328Z,98497.63
2023-10-20T23:36:30.620Z,98503.94
2023-10-20T23:38:57.122Z,98501.09
2023-10-20T23:41:23.662Z,98493.97
2023-10-20T23:43:50.139Z,98506.41
2023-10-20T23:46:16.668Z,98510.06
2023-10-20T23:48:43.251Z,98512.53
2023-10-20T23:51:09.915Z,98517.03
2023-10-20T23:53:36.940Z,98515.19
2023-10-20T23:56:03.556Z,98517.03
2023-10-20T23:58:29.994Z,98525.00
